createdAt,value
2022-09-12T00:00:17.856Z,12.25
2022-09-12T00:00:50.193Z,14.15
2022-09-12T00:01:23.734Z,11.80
2022-09-12T00:01:56.127Z,11.73
2022-09-12T00:02:28.440Z,13.27
2022-09-12T00:03:00.805Z,10.40
2022-09-12T00:03:33.138Z,10.05
2022-09-12T00:04:05.474Z,15.18
2022-09-12T00:04:38.117Z,12.60
2022-09-12T00:05:10.460Z,12.00
2022-09-12T00:05:43.973Z,15.40
2022-09-12T00:06:22.835Z,12.07
2022-09-12T00:06:55.797Z,11.50
2022-09-12T00:07:28.148Z,13.32
2022-09-12T00:08:01.445Z,13.43
2022-09-12T00:08:33.896Z,13.60
2022-09-12T00:09:08.097Z,11.15
2022-09-12T00:09:40.494Z,12.45
2022-09-12T00:10:12.823Z,12.50
2022-09-12T00:10:45.873Z,12.73
2022-09-12T00:11:18.836Z,13.98
2022-09-12T00:11:51.288Z,12.07
2022-09-12T00:12:23.691Z,15.40
2022-09-12T00:12:56.172Z,15.85
2022-09-12T00:13:28.409Z,10.73
2022-09-12T00:14:01.667Z,13.18
2022-09-12T00:14:33.900Z,13.00
2022-09-12T00:15:06.729Z,12.23
2022-09-12T00:15:39.822Z,11.88
2022-09-12T00:16:17.053Z,15.38
2022-09-12T00:16:49.528Z,16.83
2022-09-12T00:17:21.859Z,11.90
2022-09-12T00:17:54.211Z,13.93
2022-09-12T00:18:26.652Z,17.02
2022-09-12T00:18:59.530Z,10.55
2022-09-12T00:19:31.906Z,9.65
2022-09-12T00:20:05.699Z,16.58
2022-09-12T00:20:41.515Z,12.35
2022-09-12T00:21:14.326Z,14.20
2022-09-12T00:21:46.686Z,12.82
2022-09-12T00:22:19.083Z,11.68
2022-09-12T00:22:51.681Z,15.90
2022-09-12T00:23:23.964Z,12.45
2022-09-12T00:23:56.268Z,11.45
2022-09-12T00:24:28.540Z,10.07
2022-09-12T00:25:00.912Z,13.27
2022-09-12T00:25:33.238Z,13.00
2022-09-12T00:26:06.768Z,15.13
2022-09-12T00:26:39.197Z,14.85
2022-09-12T00:27:11.807Z,11.07
2022-09-12T00:27:44.155Z,14.25
2022-09-12T00:28:17.340Z,13.75
2022-09-12T00:28:49.631Z,13.15
2022-09-12T00:29:22.320Z,12.35
2022-09-12T00:29:54.582Z,14.43
2022-09-12T00:30:26.943Z,11.63
2022-09-12T00:30:59.737Z,11.00
2022-09-12T00:31:32.044Z,11.90
2022-09-12T00:32:04.893Z,9.02
2022-09-12T00:32:37.219Z,12.85
2022-09-12T00:33:10.072Z,12.77
2022-09-12T00:33:42.664Z,12.52
2022-09-12T00:34:14.929Z,12.15
2022-09-12T00:34:47.381Z,10.52
2022-09-12T00:35:19.696Z,14.98
2022-09-12T00:35:53.223Z,13.18
2022-09-12T00:36:26.036Z,13.40
2022-09-12T00:36:58.374Z,17.52
2022-09-12T00:37:30.645Z,13.25
2022-09-12T00:38:02.888Z,12.63
2022-09-12T00:38:38.746Z,11.82
2022-09-12T00:39:15.058Z,12.63
2022-09-12T00:39:47.504Z,16.73
2022-09-12T00:40:19.771Z,13.18
2022-09-12T00:40:52.037Z,13.73
2022-09-12T00:41:26.165Z,12.32
2022-09-12T00:41:58.748Z,11.43
2022-09-12T00:42:31.288Z,11.20
2022-09-12T00:43:03.547Z,12.13
2022-09-12T00:43:43.661Z,9.98
2022-09-12T00:44:49.392Z,11.70
2022-09-12T00:45:27.492Z,13.48
2022-09-12T00:46:02.927Z,14.35
2022-09-12T00:46:45.830Z,18.83
2022-09-12T00:47:21.009Z,16.80
2022-09-12T00:47:53.703Z,13.95
2022-09-12T00:48:32.382Z,11.68
2022-09-12T00:49:10.575Z,12.70
2022-09-12T00:49:51.081Z,17.45
2022-09-12T00:50:24.782Z,11.90
2022-09-12T00:50:57.140Z,13.38
2022-09-12T00:51:30.793Z,11.65
2022-09-12T00:52:06.041Z,12.07
2022-09-12T00:52:41.004Z,11.68
2022-09-12T00:53:13.371Z,9.85
2022-09-12T00:53:46.674Z,14.27
2022-09-12T00:54:21.507Z,14.52
2022-09-12T00:54:56.702Z,13.75
2022-09-12T00:55:32.359Z,17.35
2022-09-12T00:56:04.778Z,13.10
2022-09-12T00:56:38.970Z,14.43
2022-09-12T00:57:12.121Z,16.17
2022-09-12T00:57:58.624Z,15.18
2022-09-12T00:58:35.278Z,13.18
2022-09-12T00:59:12.392Z,15.63
2022-09-12T00:59:50.063Z,13.27
2022-09-12T01:00:24.577Z,15.48
2022-09-12T01:00:57.560Z,13.38
2022-09-12T01:01:32.584Z,16.45
2022-09-12T01:02:05.368Z,12.77
2022-09-12T01:02:37.708Z,13.68
2022-09-12T01:03:11.846Z,16.83
2022-09-12T01:03:44.572Z,13.70
2022-09-12T01:04:18.107Z,13.40
2022-09-12T01:04:50.649Z,14.68
2022-09-12T01:05:23.987Z,12.98
2022-09-12T01:05:59.255Z,13.55
2022-09-12T01:06:40.166Z,13.32
2022-09-12T01:07:13.207Z,13.18
2022-09-12T01:07:48.732Z,13.73
2022-09-12T01:08:21.324Z,13.98
2022-09-12T01:08:55.170Z,14.57
2022-09-12T01:09:27.505Z,13.02
2022-09-12T01:10:00.071Z,14.00
2022-09-12T01:10:35.200Z,12.63
2022-09-12T01:11:09.546Z,13.43
2022-09-12T01:11:42.795Z,16.73
2022-09-12T01:12:16.365Z,13.60
2022-09-12T01:12:49.592Z,13.55
2022-09-12T01:13:22.735Z,16.35
2022-09-12T01:13:55.457Z,16.75
2022-09-12T01:14:28.261Z,13.85
2022-09-12T01:15:01.082Z,15.10
2022-09-12T01:15:33.703Z,14.57
2022-09-12T01:16:07.088Z,16.45
2022-09-12T01:16:39.673Z,13.90
2022-09-12T01:17:13.003Z,15.30
2022-09-12T01:18:14.667Z,13.73
2022-09-12T01:18:47.283Z,16.98
2022-09-12T01:19:35.495Z,15.07
2022-09-12T01:20:07.815Z,15.65
2022-09-12T01:20:52.016Z,16.42
2022-09-12T01:21:25.036Z,15.57
2022-09-12T01:22:03.091Z,16.40
2022-09-12T01:22:41.258Z,14.10
2022-09-12T01:23:32.314Z,12.52
2022-09-12T01:24:10.345Z,13.73
2022-09-12T01:25:01.456Z,14.90
2022-09-12T01:25:36.809Z,15.73
2022-09-12T01:26:20.969Z,15.00
2022-09-12T01:26:59.169Z,16.58
2022-09-12T01:27:34.282Z,14.00
2022-09-12T01:28:35.848Z,15.98
2022-09-12T01:29:33.151Z,14.82
2022-09-12T01:30:22.541Z,13.38
2022-09-12T01:31:13.631Z,14.15
2022-09-12T01:31:47.734Z,14.93
2022-09-12T01:32:38.972Z,15.05
2022-09-12T01:33:11.392Z,16.80
2022-09-12T01:34:03.787Z,17.67
2022-09-12T01:34:46.993Z,14.38
2022-09-12T01:35:23.103Z,15.60
2022-09-12T01:36:13.637Z,12.88
2022-09-12T01:36:51.240Z,16.13
2022-09-12T01:37:25.225Z,15.02
2022-09-12T01:38:11.953Z,15.70
2022-09-12T01:38:47.537Z,14.40
2022-09-12T01:39:38.598Z,13.13
2022-09-12T01:40:19.005Z,23.45
2022-09-12T01:41:09.863Z,15.35
2022-09-12T01:41:45.877Z,18.27
2022-09-12T01:42:24.315Z,15.57
2022-09-12T01:43:06.584Z,15.63
2022-09-12T01:43:57.144Z,14.80
2022-09-12T01:44:37.942Z,17.42
2022-09-12T01:45:16.291Z,20.65
2022-09-12T01:46:03.661Z,14.95
2022-09-12T01:46:53.828Z,15.23
2022-09-12T01:47:26.089Z,17.67
2022-09-12T01:48:19.888Z,17.02
2022-09-12T01:48:57.584Z,18.73
2022-09-12T01:49:33.264Z,15.65
2022-09-12T01:50:16.516Z,14.38
2022-09-12T01:50:54.614Z,15.57
2022-09-12T01:51:32.543Z,16.50
2022-09-12T01:52:11.077Z,20.00
2022-09-12T01:52:43.520Z,16.08
2022-09-12T01:53:19.364Z,14.52
2022-09-12T01:53:55.819Z,16.13
2022-09-12T01:54:35.978Z,16.92
2022-09-12T01:55:18.298Z,18.20
2022-09-12T01:56:10.991Z,16.75
2022-09-12T01:56:44.404Z,14.63
2022-09-12T01:57:20.674Z,20.08
2022-09-12T01:57:59.449Z,15.85
2022-09-12T01:58:39.050Z,17.48
2022-09-12T01:59:28.853Z,19.27
2022-09-12T02:00:04.582Z,20.50
2022-09-12T02:01:00.169Z,17.17
2022-09-12T02:01:34.217Z,17.02
2022-09-12T02:02:07.408Z,14.30
2022-09-12T02:02:42.418Z,13.68
2022-09-12T02:03:17.148Z,19.55
2022-09-12T02:03:52.034Z,18.83
2022-09-12T02:04:34.261Z,16.20
2022-09-12T02:05:12.061Z,19.05
2022-09-12T02:05:47.813Z,18.15
2022-09-12T02:06:26.056Z,17.25
2022-09-12T02:07:00.554Z,16.33
2022-09-12T02:07:41.857Z,15.60
2022-09-12T02:08:17.538Z,14.07
2022-09-12T02:08:54.850Z,16.30
2022-09-12T02:09:45.737Z,19.85
2022-09-12T02:10:20.634Z,12.88
2022-09-12T02:10:55.286Z,18.10
2022-09-12T02:11:28.567Z,17.17
2022-09-12T02:12:01.637Z,17.05
2022-09-12T02:12:43.880Z,17.60
2022-09-12T02:13:19.110Z,16.38
2022-09-12T02:13:51.515Z,18.98
2022-09-12T02:14:26.226Z,15.70
2022-09-12T02:15:02.477Z,15.45
2022-09-12T02:15:38.160Z,15.15
2022-09-12T02:16:13.449Z,14.70
2022-09-12T02:16:51.197Z,13.70
2022-09-12T02:17:24.618Z,15.50
2022-09-12T02:17:58.367Z,15.70
2022-09-12T02:18:32.414Z,19.15
2022-09-12T02:19:08.729Z,14.95
2022-09-12T02:19:53.125Z,15.52
2022-09-12T02:20:47.346Z,17.08
2022-09-12T02:21:22.983Z,14.48
2022-09-12T02:22:02.818Z,12.95
2022-09-12T02:22:35.871Z,16.27
2022-09-12T02:23:10.178Z,16.60
2022-09-12T02:23:46.100Z,17.13
2022-09-12T02:24:21.418Z,13.65
2022-09-12T02:24:55.825Z,14.63
2022-09-12T02:25:29.355Z,17.80
2022-09-12T02:26:04.093Z,16.73
2022-09-12T02:26:46.220Z,14.25
2022-09-12T02:27:21.713Z,14.45
2022-09-12T02:27:57.700Z,13.38
2022-09-12T02:28:32.106Z,14.75
2022-09-12T02:29:04.936Z,19.52
2022-09-12T02:29:37.478Z,12.25
2022-09-12T02:30:10.211Z,15.30
2022-09-12T02:30:45.823Z,17.33
2022-09-12T02:31:18.312Z,13.05
2022-09-12T02:31:54.463Z,15.10
2022-09-12T02:32:38.317Z,14.38
2022-09-12T02:33:40.159Z,13.65
2022-09-12T02:34:21.607Z,12.85
2022-09-12T02:35:03.426Z,11.00
2022-09-12T02:35:44.023Z,14.00
2022-09-12T02:36:34.926Z,13.15
2022-09-12T02:37:19.470Z,14.80
2022-09-12T02:37:58.522Z,13.88
2022-09-12T02:38:35.740Z,11.48
2022-09-12T02:39:08.178Z,12.65
2022-09-12T02:39:44.976Z,13.73
2022-09-12T02:40:18.190Z,12.13
2022-09-12T02:40:50.764Z,13.20
2022-09-12T02:41:23.155Z,11.20
2022-09-12T02:41:56.450Z,13.50
2022-09-12T02:42:28.690Z,13.52
2022-09-12T02:43:01.693Z,11.95
2022-09-12T02:43:34.462Z,12.02
2022-09-12T02:44:07.139Z,10.65
2022-09-12T02:44:39.583Z,12.27
2022-09-12T02:45:12.801Z,13.20
2022-09-12T02:45:45.258Z,13.32
2022-09-12T02:46:26.668Z,12.88
2022-09-12T02:47:01.639Z,12.00
2022-09-12T02:47:36.771Z,10.63
2022-09-12T02:48:14.909Z,14.30
2022-09-12T02:48:47.380Z,10.50
2022-09-12T02:49:20.037Z,12.57
2022-09-12T02:49:53.138Z,19.33
2022-09-12T02:50:25.531Z,16.02
2022-09-12T02:50:57.918Z,13.98
2022-09-12T02:51:30.519Z,11.45
2022-09-12T02:52:03.375Z,13.32
2022-09-12T02:52:36.686Z,11.32
2022-09-12T02:53:09.532Z,12.75
2022-09-12T02:53:42.038Z,11.65
2022-09-12T02:54:15.999Z,16.50
2022-09-12T02:54:48.545Z,14.57
2022-09-12T02:55:21.002Z,14.75
2022-09-12T02:55:53.445Z,11.80
2022-09-12T02:56:29.874Z,15.38
2022-09-12T02:57:02.415Z,10.35
2022-09-12T02:57:34.757Z,13.18
2022-09-12T02:58:08.942Z,12.80
2022-09-12T02:58:41.324Z,14.85
2022-09-12T02:59:18.413Z,12.07
2022-09-12T02:59:52.386Z,13.40
2022-09-12T03:00:25.407Z,12.23
2022-09-12T03:01:02.844Z,13.60
2022-09-12T03:01:50.245Z,15.93
2022-09-12T03:02:22.634Z,14.70
2022-09-12T03:03:10.017Z,16.70
2022-09-12T03:03:57.205Z,11.38
2022-09-12T03:04:47.957Z,12.38
2022-09-12T03:05:20.315Z,11.07
2022-09-12T03:05:58.158Z,12.00
2022-09-12T03:06:45.476Z,9.02
2022-09-12T03:07:47.086Z,10.95
2022-09-12T03:08:49.284Z,10.90
2022-09-12T03:09:30.463Z,9.27
2022-09-12T03:10:19.699Z,11.63
2022-09-12T03:11:18.724Z,8.23
2022-09-12T03:12:02.868Z,9.98
2022-09-12T03:12:37.789Z,9.85
2022-09-12T03:13:22.205Z,11.70
2022-09-12T03:13:57.422Z,10.82
2022-09-12T03:14:48.118Z,10.23
2022-09-12T03:15:39.076Z,10.65
2022-09-12T03:16:14.324Z,12.90
2022-09-12T03:16:52.427Z,13.35
2022-09-12T03:17:29.623Z,8.88
2022-09-12T03:18:07.836Z,12.55
2022-09-12T03:18:58.712Z,8.77
2022-09-12T03:19:31.007Z,10.10
2022-09-12T03:20:10.507Z,9.18
2022-09-12T03:20:45.806Z,10.65
2022-09-12T03:21:23.982Z,10.75
2022-09-12T03:22:04.031Z,9.85
2022-09-12T03:22:39.090Z,9.73
2022-09-12T03:23:19.372Z,9.98
2022-09-12T03:23:51.870Z,9.88
2022-09-12T03:24:27.100Z,11.48
2022-09-12T03:25:19.356Z,11.90
2022-09-12T03:25:57.290Z,10.57
2022-09-12T03:26:32.960Z,12.15
2022-09-12T03:27:09.558Z,14.57
2022-09-12T03:28:06.427Z,14.10
2022-09-12T03:28:39.674Z,8.00
2022-09-12T03:29:13.230Z,10.48
2022-09-12T03:29:48.067Z,11.13
2022-09-12T03:30:20.582Z,10.77
2022-09-12T03:30:54.886Z,9.63
2022-09-12T03:31:27.180Z,10.18
2022-09-12T03:31:59.604Z,9.07
2022-09-12T03:32:41.705Z,12.48
2022-09-12T03:33:16.344Z,12.15
2022-09-12T03:33:48.634Z,9.43
2022-09-12T03:34:21.744Z,8.98
2022-09-12T03:34:54.165Z,10.73
2022-09-12T03:35:26.798Z,11.55
2022-09-12T03:35:59.288Z,10.07
2022-09-12T03:36:31.751Z,10.85
2022-09-12T03:37:04.119Z,11.43
2022-09-12T03:37:36.679Z,11.05
2022-09-12T03:38:08.937Z,8.95
2022-09-12T03:38:41.491Z,10.98
2022-09-12T03:39:14.242Z,10.43
2022-09-12T03:39:46.796Z,11.25
2022-09-12T03:40:19.587Z,17.60
2022-09-12T03:40:54.812Z,11.38
2022-09-12T03:41:27.334Z,12.15
2022-09-12T03:41:59.627Z,10.88
2022-09-12T03:42:31.924Z,10.07
2022-09-12T03:43:05.024Z,15.82
2022-09-12T03:43:37.325Z,13.88
2022-09-12T03:44:09.963Z,10.13
2022-09-12T03:44:42.240Z,10.63
2022-09-12T03:45:14.748Z,12.15
2022-09-12T03:45:50.255Z,11.00
2022-09-12T03:46:22.599Z,11.15
2022-09-12T03:46:54.926Z,12.40
2022-09-12T03:47:27.210Z,12.27
2022-09-12T03:47:59.564Z,14.48
2022-09-12T03:48:34.689Z,9.98
2022-09-12T03:49:07.093Z,12.90
2022-09-12T03:49:39.393Z,11.85
2022-09-12T03:50:11.578Z,12.48
2022-09-12T03:50:43.846Z,10.70
2022-09-12T03:51:16.359Z,9.80
2022-09-12T03:51:49.631Z,15.02
2022-09-12T03:52:22.030Z,12.63
2022-09-12T03:52:54.281Z,10.68
2022-09-12T03:53:26.809Z,9.68
2022-09-12T03:53:59.001Z,14.23
2022-09-12T03:54:31.372Z,9.75
2022-09-12T03:55:03.800Z,10.32
2022-09-12T03:55:36.585Z,12.60
2022-09-12T03:56:10.393Z,11.10
2022-09-12T03:56:42.784Z,12.90
2022-09-12T03:57:15.204Z,12.27
2022-09-12T03:57:47.716Z,11.98
2022-09-12T03:58:20.127Z,10.40
2022-09-12T03:58:52.613Z,11.38
2022-09-12T03:59:25.001Z,13.85
2022-09-12T03:59:57.740Z,16.02
2022-09-12T04:00:30.052Z,11.20
2022-09-12T04:01:13.006Z,16.17
2022-09-12T04:01:45.355Z,13.88
2022-09-12T04:02:17.880Z,15.75
2022-09-12T04:02:53.497Z,15.77
2022-09-12T04:03:25.911Z,14.00
2022-09-12T04:03:58.213Z,15.65
2022-09-12T04:04:30.750Z,16.45
2022-09-12T04:05:03.738Z,15.52
2022-09-12T04:05:36.576Z,14.48
2022-09-12T04:06:10.014Z,19.42
2022-09-12T04:06:43.291Z,16.55
2022-09-12T04:07:16.521Z,17.05
2022-09-12T04:07:48.951Z,14.48
2022-09-12T04:08:21.247Z,15.45
2022-09-12T04:08:54.438Z,15.13
2022-09-12T04:09:26.951Z,15.13
2022-09-12T04:09:59.212Z,15.55
2022-09-12T04:10:31.981Z,15.05
2022-09-12T04:11:05.313Z,14.98
2022-09-12T04:11:37.671Z,13.27
2022-09-12T04:12:10.106Z,14.63
2022-09-12T04:12:42.492Z,13.52
2022-09-12T04:13:14.886Z,12.70
2022-09-12T04:13:47.409Z,17.30
2022-09-12T04:14:20.119Z,12.02
2022-09-12T04:14:52.580Z,15.63
2022-09-12T04:15:24.951Z,14.75
2022-09-12T04:16:00.144Z,12.93
2022-09-12T04:16:33.143Z,15.63
2022-09-12T04:17:05.814Z,13.20
2022-09-12T04:17:38.073Z,12.32
2022-09-12T04:18:10.315Z,13.68
2022-09-12T04:18:42.868Z,18.20
2022-09-12T04:19:15.312Z,13.35
2022-09-12T04:19:47.559Z,12.70
2022-09-12T04:20:20.190Z,12.80
2022-09-12T04:20:52.584Z,15.35
2022-09-12T04:21:25.091Z,15.57
2022-09-12T04:21:57.395Z,10.80
2022-09-12T04:22:32.086Z,12.73
2022-09-12T04:23:04.696Z,12.75
2022-09-12T04:23:37.298Z,13.45
2022-09-12T04:24:09.581Z,11.57
2022-09-12T04:24:41.908Z,14.57
2022-09-12T04:25:14.689Z,14.43
2022-09-12T04:26:00.542Z,12.88
2022-09-12T04:26:33.042Z,12.38
2022-09-12T04:27:07.834Z,14.38
2022-09-12T04:27:40.504Z,15.40
2022-09-12T04:28:12.759Z,12.65
2022-09-12T04:28:46.503Z,11.07
2022-09-12T04:29:18.981Z,12.38
2022-09-12T04:29:51.389Z,13.88
2022-09-12T04:30:23.674Z,14.35
2022-09-12T04:30:56.734Z,12.85
2022-09-12T04:31:29.183Z,12.07
2022-09-12T04:32:01.610Z,15.77
2022-09-12T04:32:33.906Z,11.48
2022-09-12T04:33:08.227Z,10.00
2022-09-12T04:33:40.832Z,12.02
2022-09-12T04:34:13.143Z,11.15
2022-09-12T04:34:46.184Z,18.10
2022-09-12T04:35:18.443Z,12.63
2022-09-12T04:35:50.715Z,11.80
2022-09-12T04:36:23.741Z,13.50
2022-09-12T04:36:56.138Z,12.82
2022-09-12T04:37:28.672Z,10.50
2022-09-12T04:38:01.332Z,9.25
2022-09-12T04:38:34.251Z,9.90
2022-09-12T04:39:06.559Z,12.55
2022-09-12T04:39:39.123Z,11.18
2022-09-12T04:40:11.593Z,13.25
2022-09-12T04:40:43.945Z,12.55
2022-09-12T04:41:17.905Z,11.82
2022-09-12T04:41:50.557Z,10.32
2022-09-12T04:42:22.907Z,12.52
2022-09-12T04:42:56.230Z,8.32
2022-09-12T04:43:28.498Z,11.02
2022-09-12T04:44:02.548Z,12.50
2022-09-12T04:44:34.892Z,12.32
2022-09-12T04:45:08.264Z,9.68
2022-09-12T04:45:40.672Z,13.30
2022-09-12T04:46:13.638Z,11.88
2022-09-12T04:46:46.931Z,11.23
2022-09-12T04:47:19.293Z,9.55
2022-09-12T04:47:51.578Z,8.32
2022-09-12T04:48:24.117Z,12.13
2022-09-12T04:48:57.196Z,11.50
2022-09-12T04:49:29.696Z,9.60
2022-09-12T04:50:02.008Z,13.60
2022-09-12T04:50:34.299Z,11.57
2022-09-12T04:51:10.463Z,9.85
2022-09-12T04:51:43.453Z,9.30
2022-09-12T04:52:15.772Z,8.63
2022-09-12T04:52:51.459Z,9.00
2022-09-12T04:53:23.728Z,9.50
2022-09-12T04:53:58.025Z,14.82
2022-09-12T04:54:30.405Z,9.02
2022-09-12T04:55:03.181Z,12.15
2022-09-12T04:55:35.777Z,7.72
2022-09-12T04:56:09.493Z,11.15
2022-09-12T04:56:42.854Z,15.40
2022-09-12T04:57:15.187Z,10.68
2022-09-12T04:57:47.748Z,11.90
2022-09-12T04:58:20.020Z,11.63
2022-09-12T04:58:52.802Z,10.73
2022-09-12T04:59:25.103Z,13.98
2022-09-12T04:59:57.437Z,11.30
2022-09-12T05:00:29.936Z,11.30
2022-09-12T05:01:09.869Z,11.38
2022-09-12T05:01:42.365Z,10.52
2022-09-12T05:02:14.777Z,8.60
2022-09-12T05:02:47.112Z,10.43
2022-09-12T05:03:19.384Z,11.85
2022-09-12T05:03:51.768Z,11.38
2022-09-12T05:04:24.432Z,9.98
2022-09-12T05:04:56.731Z,9.35
2022-09-12T05:05:29.051Z,10.52
2022-09-12T05:06:04.110Z,9.20
2022-09-12T05:06:37.353Z,10.93
2022-09-12T05:07:09.783Z,13.35
2022-09-12T05:07:42.147Z,13.60
2022-09-12T05:08:14.490Z,10.95
2022-09-12T05:08:46.990Z,14.77
2022-09-12T05:09:19.487Z,12.43
2022-09-12T05:09:52.071Z,18.30
2022-09-12T05:10:24.395Z,11.38
2022-09-12T05:10:57.559Z,13.60
2022-09-12T05:11:52.994Z,10.63
2022-09-12T05:12:23.374Z,13.30
2022-09-12T05:12:55.640Z,13.55
2022-09-12T05:13:27.886Z,14.15
2022-09-12T05:14:00.182Z,11.68
2022-09-12T05:14:33.263Z,10.63
2022-09-12T05:15:06.396Z,13.15
2022-09-12T05:15:39.404Z,10.77
2022-09-12T05:16:12.805Z,15.55
2022-09-12T05:16:49.182Z,14.70
2022-09-12T05:17:21.993Z,14.63
2022-09-12T05:17:54.424Z,13.73
2022-09-12T05:18:26.859Z,12.23
2022-09-12T05:18:59.617Z,15.05
2022-09-12T05:19:32.240Z,11.95
2022-09-12T05:20:04.857Z,13.55
2022-09-12T05:20:37.130Z,16.63
2022-09-12T05:21:11.193Z,12.70
2022-09-12T05:21:43.490Z,13.18
2022-09-12T05:22:15.816Z,11.43
2022-09-12T05:22:48.120Z,12.82
2022-09-12T05:23:20.575Z,12.48
2022-09-12T05:23:56.632Z,14.93
2022-09-12T05:24:29.095Z,11.70
2022-09-12T05:25:01.346Z,14.52
2022-09-12T05:25:33.753Z,12.88
2022-09-12T05:26:06.762Z,15.73
2022-09-12T05:26:39.014Z,11.50
2022-09-12T05:27:11.442Z,17.00
2022-09-12T05:27:46.425Z,15.00
2022-09-12T05:28:22.843Z,12.48
2022-09-12T05:28:55.275Z,11.93
2022-09-12T05:29:27.606Z,11.82
2022-09-12T05:30:00.035Z,12.45
2022-09-12T05:30:32.364Z,14.75
2022-09-12T05:31:10.753Z,14.73
2022-09-12T05:31:43.300Z,13.77
2022-09-12T05:32:15.830Z,12.73
2022-09-12T05:32:48.221Z,14.85
2022-09-12T05:33:24.911Z,15.20
2022-09-12T05:33:57.896Z,13.77
2022-09-12T05:34:30.132Z,13.90
2022-09-12T05:35:02.439Z,13.82
2022-09-12T05:35:35.015Z,14.18
2022-09-12T05:36:08.490Z,14.55
2022-09-12T05:36:40.797Z,14.20
2022-09-12T05:37:13.186Z,15.82
2022-09-12T05:37:45.436Z,12.63
2022-09-12T05:38:17.733Z,19.30
2022-09-12T05:38:50.560Z,14.32
2022-09-12T05:39:23.755Z,13.18
2022-09-12T05:39:56.050Z,12.45
2022-09-12T05:40:28.500Z,15.23
2022-09-12T05:41:06.410Z,13.88
2022-09-12T05:41:38.688Z,13.20
2022-09-12T05:42:11.352Z,13.57
2022-09-12T05:42:43.590Z,15.60
2022-09-12T05:43:15.827Z,14.60
2022-09-12T05:43:51.735Z,13.13
2022-09-12T05:44:25.073Z,13.02
2022-09-12T05:44:57.547Z,15.23
2022-09-12T05:45:30.001Z,17.40
2022-09-12T05:46:03.179Z,22.17
2022-09-12T05:46:39.583Z,23.77
2022-09-12T05:47:12.832Z,25.67
2022-09-12T05:47:46.881Z,22.58
2022-09-12T05:48:19.213Z,21.20
2022-09-12T05:48:55.873Z,23.27
2022-09-12T05:49:28.946Z,20.38
2022-09-12T05:50:01.219Z,21.38
2022-09-12T05:50:33.594Z,26.42
2022-09-12T05:51:09.455Z,27.67
2022-09-12T05:51:45.685Z,21.35
2022-09-12T05:52:18.158Z,19.52
2022-09-12T05:52:50.744Z,16.65
2022-09-12T05:53:23.166Z,20.65
2022-09-12T05:54:00.128Z,18.10
2022-09-12T05:54:33.597Z,19.10
2022-09-12T05:55:06.757Z,17.77
2022-09-12T05:55:39.004Z,16.63
2022-09-12T05:56:12.768Z,16.83
2022-09-12T05:56:45.456Z,17.42
2022-09-12T05:57:17.770Z,13.73
2022-09-12T05:57:50.535Z,14.60
2022-09-12T05:58:23.180Z,16.92
2022-09-12T05:58:56.552Z,12.93
2022-09-12T05:59:28.956Z,15.90
2022-09-12T06:00:01.492Z,14.48
2022-09-12T06:00:44.400Z,16.55
2022-09-12T06:01:18.157Z,11.68
2022-09-12T06:01:50.871Z,11.55
2022-09-12T06:02:23.170Z,13.02
2022-09-12T06:02:55.444Z,11.88
2022-09-12T06:03:27.772Z,13.32
2022-09-12T06:04:01.202Z,18.27
2022-09-12T06:04:33.579Z,12.63
2022-09-12T06:05:05.918Z,12.90
2022-09-12T06:05:38.141Z,12.30
2022-09-12T06:06:13.843Z,14.45
2022-09-12T06:06:46.616Z,12.93
2022-09-12T06:07:18.971Z,10.70
2022-09-12T06:07:51.835Z,14.23
2022-09-12T06:08:24.257Z,12.02
2022-09-12T06:08:58.586Z,15.15
2022-09-12T06:09:30.996Z,15.68
2022-09-12T06:10:03.907Z,12.60
2022-09-12T06:10:36.767Z,11.65
2022-09-12T06:11:10.179Z,14.23
2022-09-12T06:11:43.046Z,13.02
2022-09-12T06:12:15.368Z,14.32
2022-09-12T06:12:47.957Z,10.70
2022-09-12T06:13:20.213Z,11.23
2022-09-12T06:13:52.560Z,14.68
2022-09-12T06:14:24.925Z,19.92
2022-09-12T06:14:57.608Z,25.50
2022-09-12T06:15:29.957Z,31.27
2022-09-12T06:16:03.163Z,23.70
2022-09-12T06:16:36.009Z,23.77
2022-09-12T06:17:08.346Z,19.70
2022-09-12T06:17:40.658Z,23.65
2022-09-12T06:18:13.269Z,22.30
2022-09-12T06:18:49.418Z,23.92
2022-09-12T06:19:24.004Z,17.95
2022-09-12T06:19:57.247Z,21.13
2022-09-12T06:20:29.572Z,18.67
2022-09-12T06:21:06.021Z,17.48
2022-09-12T06:21:40.039Z,15.48
2022-09-12T06:22:12.285Z,18.80
2022-09-12T06:22:44.550Z,18.02
2022-09-12T06:23:17.003Z,12.50
2022-09-12T06:23:49.885Z,13.65
2022-09-12T06:24:22.310Z,12.88
2022-09-12T06:24:57.879Z,12.80
2022-09-12T06:25:30.799Z,14.95
2022-09-12T06:26:04.456Z,14.88
2022-09-12T06:26:37.204Z,16.77
2022-09-12T06:27:09.799Z,13.55
2022-09-12T06:27:42.111Z,16.60
2022-09-12T06:28:14.401Z,14.00
2022-09-12T06:28:46.792Z,16.08
2022-09-12T06:29:19.588Z,14.50
2022-09-12T06:29:51.974Z,14.43
2022-09-12T06:30:25.548Z,16.80
2022-09-12T06:31:08.407Z,13.82
2022-09-12T06:31:42.137Z,14.70
2022-09-12T06:32:14.391Z,17.67
2022-09-12T06:32:46.675Z,14.63
2022-09-12T06:33:18.949Z,16.48
2022-09-12T06:33:52.038Z,15.90
2022-09-12T06:34:24.710Z,15.90
2022-09-12T06:34:57.839Z,15.90
2022-09-12T06:35:30.492Z,16.08
2022-09-12T06:36:11.575Z,15.57
2022-09-12T06:36:48.741Z,14.25
2022-09-12T06:37:21.202Z,15.93
2022-09-12T06:37:53.549Z,14.98
2022-09-12T06:38:26.524Z,17.45
2022-09-12T06:39:01.434Z,15.77
2022-09-12T06:39:33.795Z,12.43
2022-09-12T06:40:06.740Z,15.40
2022-09-12T06:40:44.668Z,15.02
2022-09-12T06:41:17.355Z,14.38
2022-09-12T06:41:51.030Z,17.10
2022-09-12T06:42:23.580Z,17.42
2022-09-12T06:43:02.100Z,14.50
2022-09-12T06:43:38.980Z,14.82
2022-09-12T06:44:16.287Z,18.10
2022-09-12T06:44:48.770Z,18.05
2022-09-12T06:45:21.642Z,15.43
2022-09-12T06:45:54.334Z,16.83
2022-09-12T06:46:27.078Z,16.65
2022-09-12T06:46:59.512Z,18.17
2022-09-12T06:47:31.938Z,17.27
2022-09-12T06:48:04.953Z,17.42
2022-09-12T06:48:47.042Z,17.42
2022-09-12T06:49:19.429Z,16.65
2022-09-12T06:49:51.681Z,16.27
2022-09-12T06:50:24.158Z,14.05
2022-09-12T06:51:00.659Z,14.20
2022-09-12T06:51:32.911Z,12.98
2022-09-12T06:52:05.315Z,15.90
2022-09-12T06:52:37.933Z,15.90
2022-09-12T06:53:10.198Z,18.20
2022-09-12T06:53:43.330Z,15.07
2022-09-12T06:54:17.108Z,15.65
2022-09-12T06:54:49.687Z,18.80
2022-09-12T06:55:27.607Z,13.57
2022-09-12T06:56:01.371Z,14.02
2022-09-12T06:56:34.239Z,12.85
2022-09-12T06:57:07.433Z,13.80
2022-09-12T06:57:39.739Z,16.13
2022-09-12T06:58:12.074Z,15.77
2022-09-12T06:58:44.647Z,13.25
2022-09-12T06:59:17.422Z,11.82
2022-09-12T06:59:50.940Z,15.40
2022-09-12T07:00:23.615Z,13.18
2022-09-12T07:01:05.576Z,11.85
2022-09-12T07:01:38.256Z,14.30
2022-09-12T07:02:10.777Z,12.82
2022-09-12T07:02:43.072Z,12.30
2022-09-12T07:03:15.615Z,16.10
2022-09-12T07:03:49.227Z,10.90
2022-09-12T07:04:22.213Z,12.40
2022-09-12T07:04:54.487Z,11.85
2022-09-12T07:05:26.783Z,12.80
2022-09-12T07:06:09.289Z,10.73
2022-09-12T07:06:42.490Z,10.98
2022-09-12T07:07:14.863Z,12.98
2022-09-12T07:07:47.314Z,9.32
2022-09-12T07:08:19.627Z,11.32
2022-09-12T07:08:52.489Z,13.07
2022-09-12T07:09:24.861Z,12.23
2022-09-12T07:09:58.332Z,14.80
2022-09-12T07:10:31.478Z,11.93
2022-09-12T07:11:13.115Z,11.57
2022-09-12T07:11:46.021Z,13.13
2022-09-12T07:12:18.764Z,11.65
2022-09-12T07:12:51.035Z,10.52
2022-09-12T07:13:23.348Z,10.60
2022-09-12T07:13:57.080Z,12.20
2022-09-12T07:14:29.372Z,11.90
2022-09-12T07:15:01.618Z,11.57
2022-09-12T07:15:34.993Z,11.30
2022-09-12T07:16:07.655Z,11.88
2022-09-12T07:16:40.185Z,12.18
2022-09-12T07:17:12.687Z,12.02
2022-09-12T07:17:45.101Z,10.80
2022-09-12T07:18:17.640Z,11.13
2022-09-12T07:18:54.352Z,12.05
2022-09-12T07:19:26.721Z,12.30
2022-09-12T07:19:59.032Z,13.18
2022-09-12T07:20:33.331Z,13.85
2022-09-12T07:21:07.283Z,11.10
2022-09-12T07:21:42.830Z,11.90
2022-09-12T07:22:15.133Z,10.35
2022-09-12T07:22:47.451Z,11.32
2022-09-12T07:23:19.927Z,14.65
2022-09-12T07:23:52.429Z,12.52
2022-09-12T07:24:24.774Z,14.13
2022-09-12T07:24:57.884Z,12.38
2022-09-12T07:25:30.464Z,13.45
2022-09-12T07:26:03.108Z,17.10
2022-09-12T07:26:35.849Z,11.05
2022-09-12T07:27:08.434Z,11.77
2022-09-12T07:27:40.698Z,12.90
2022-09-12T07:28:13.089Z,13.73
2022-09-12T07:28:45.504Z,15.48
2022-09-12T07:29:36.986Z,14.57
2022-09-12T07:30:10.069Z,12.98
2022-09-12T07:30:42.370Z,11.00
2022-09-12T07:31:16.303Z,13.80